Deerfield, SD

3:53 AM MST on December 08, 2016 (GMT -0700)
| | Change Station
Active Advisory: Wind Chill Advisory

Elev -9999 ft 0.00 °N, 0.00 °E | Updated 0 second ago

Clear
Clear
°F
Feels Like °F
N
Wind Variable Wind from North
Gusts mph

Today
High -- | Low -- °F
--% Chance of Precip.
Yesterday
High -- | Low -- °F
Precip. -- in
Pressure 30.59 in
Visibility 10.0 miles
Clouds Clear
Dew Point Not available.
Humidity Not available.
Rainfall --
Snow Depth Not available.
7:17 AM 4:16 PM
Waxing Gibbous, 62% visible
METAR KCUT 080953Z AUTO 30003KT 10SM CLR M19/M26 A3027 RMK AO2 SLP357 T11941261
Pressure 30.59 in
Visibility 10.0 miles
Clouds Clear
Dew Point Not available.
Humidity Not available.
Rainfall --
Snow Depth Not available.
7:17 AM 4:16 PM
Waxing Gibbous, 62% visible
METAR KCUT 080953Z AUTO 30003KT 10SM CLR M19/M26 A3027 RMK AO2 SLP357 T11941261

10-Day Weather Forecast

Almanac

Astronomy

Dec. 08, 2016 Rise Set
Actual Time
Civil Twilight
Nautical Twilight
Astronomical Twilight
Moon
Length of Visible Light
Length of Day
Tomorrow will be .
, % of the Moon is Illuminated

Today's Extremes

State Highs State Lows

Community

WunderPhotos

Upload Photos

1,956,261 photos uploaded!

WunderBlog® & News

Nearby

Air Quality

  Air Quality AQ Index Pollutant
Not available.

Snow Depth

Station Depth Elevation

Earthquake Activity

City Distance Mag. Time & Date
Minimum magnitude displayed is 2.5.

Coastal Water Temperatures

Place Temperature

Stations

Nearby Weather Stations

Station Location Temp. Windchill Dew Point Humidity Wind Precip. Elev Updated Type
                   

Watches & Warnings

Wind Chill Advisory
Issued: 8:30 PM CST Dec. 7, 2016 – National Weather Service

... Wind Chill Advisory remains in effect until 11 am MST /noon
CST/ Thursday...

* wind chill values will drop to as low as 25 below to 30 below
zero late this evening through Thursday morning... with the
lowest wind chills expected late tonight and early Thursday
morning.

Precautionary/preparedness actions...

A Wind Chill Advisory means that cold air and the wind will
combine to create low wind chills. Frost bite and hypothermia can
occur if precautions are not taken. Make sure you wear a hat and
gloves.



Hintz